TSC159 SKCG-CYYZ
Flight info
| Callsign | TSC159 |
|---|---|
| Flight time | 4h 58m |
| Altitude | 34000 |
| Route | ALTIB DCT ZEUSS Y217 FONDS/N0460F360 Y217 OCTAL DCT DUCEN/N0453F350 Q87 VIYAP Q69 GURGE DCT CAE/N0447F370 DCT RYCKI Q69 RICCS DCT OXMAN LINNG3 |
| Aircraft | A321/M-SDE3FGHIRWY/LB1 |
Departure
| Time | 2026-05-08 23:06 |
|---|---|
| Airport | Rafael Nuñez International Airport (SKCG) |
Arrival
| Time | 2026-05-09 04:04 |
|---|---|
| Airport | Toronto Pearson International Airport (CYYZ) |
| Time | Latitude | Longitude | Altitude | Speed | Heading |
|---|---|---|---|---|---|
| 2026-05-08 22:25 | 10.44688 | -75.51546 | 51 ft | 0 kts | 272° |
| 2026-05-08 22:55 | 10.44688 | -75.51545 | 51 ft | 2 kts | 272° |
| 2026-05-08 22:55 | 10.44689 | -75.51520 | 48 ft | 4 kts | 251° |
| 2026-05-08 22:56 | 10.44703 | -75.51499 | 51 ft | 4 kts | 205° |
| 2026-05-08 22:56 | 10.44716 | -75.51495 | 50 ft | 0 kts | 182° |
| 2026-05-08 22:59 | 10.44714 | -75.51495 | 51 ft | 2 kts | 182° |
| 2026-05-08 22:59 | 10.44700 | -75.51496 | 51 ft | 1 kts | 182° |
| 2026-05-08 23:00 | 10.44673 | -75.51491 | 51 ft | 6 kts | 161° |
| 2026-05-08 23:00 | 10.44640 | -75.51452 | 51 ft | 9 kts | 108° |
| 2026-05-08 23:00 | 10.44640 | -75.51379 | 51 ft | 12 kts | 76° |
| 2026-05-08 23:00 | 10.44630 | -75.51291 | 51 ft | 14 kts | 135° |
| 2026-05-08 23:01 | 10.44531 | -75.51278 | 51 ft | 16 kts | 181° |
| 2026-05-08 23:01 | 10.44415 | -75.51280 | 51 ft | 18 kts | 181° |
| 2026-05-08 23:01 | 10.44287 | -75.51285 | 51 ft | 19 kts | 182° |
| 2026-05-08 23:01 | 10.44145 | -75.51293 | 49 ft | 21 kts | 182° |
| 2026-05-08 23:02 | 10.43990 | -75.51298 | 48 ft | 23 kts | 182° |
| 2026-05-08 23:02 | 10.43821 | -75.51305 | 51 ft | 25 kts | 182° |
| 2026-05-08 23:02 | 10.43637 | -75.51314 | 51 ft | 28 kts | 182° |
| 2026-05-08 23:02 | 10.43437 | -75.51322 | 51 ft | 30 kts | 182° |
| 2026-05-08 23:03 | 10.43264 | -75.51328 | 49 ft | 15 kts | 175° |
| 2026-05-08 23:03 | 10.43185 | -75.51274 | 51 ft | 11 kts | 136° |
| 2026-05-08 23:03 | 10.43129 | -75.51234 | 48 ft | 9 kts | 165° |
| 2026-05-08 23:03 | 10.43096 | -75.51234 | 51 ft | 0 kts | 191° |
| 2026-05-08 23:04 | 10.43070 | -75.51262 | 51 ft | 10 kts | 250° |
| 2026-05-08 23:05 | 10.43121 | -75.51334 | 51 ft | 19 kts | 355° |
| 2026-05-08 23:05 | 10.43331 | -75.51326 | 51 ft | 56 kts | 2° |
| 2026-05-08 23:05 | 10.43960 | -75.51302 | 51 ft | 121 kts | 2° |
| 2026-05-08 23:05 | 10.44929 | -75.51267 | 382 ft | 141 kts | 2° |
| 2026-05-08 23:06 | 10.45910 | -75.51224 | 991 ft | 142 kts | 1° |
| 2026-05-08 23:06 | 10.46900 | -75.51175 | 1617 ft | 143 kts | 5° |
| 2026-05-08 23:06 | 10.47945 | -75.51123 | 2047 ft | 161 kts | 3° |
| 2026-05-08 23:06 | 10.49126 | -75.51055 | 2300 ft | 179 kts | 4° |
| 2026-05-08 23:07 | 10.50433 | -75.50956 | 2425 ft | 197 kts | 4° |
| 2026-05-08 23:07 | 10.51856 | -75.50841 | 2566 ft | 213 kts | 5° |
| 2026-05-08 23:07 | 10.53362 | -75.50913 | 2685 ft | 229 kts | 344° |
| 2026-05-08 23:07 | 10.54931 | -75.51497 | 2767 ft | 252 kts | 338° |
| 2026-05-08 23:08 | 10.56620 | -75.52233 | 3093 ft | 266 kts | 336° |
| 2026-05-08 23:08 | 10.58309 | -75.52983 | 3629 ft | 271 kts | 336° |
| 2026-05-08 23:08 | 10.60063 | -75.53769 | 4236 ft | 273 kts | 336° |
| 2026-05-08 23:08 | 10.61805 | -75.54555 | 4824 ft | 275 kts | 336° |
| 2026-05-08 23:09 | 10.63536 | -75.55335 | 5387 ft | 277 kts | 336° |
| 2026-05-08 23:09 | 10.65305 | -75.56130 | 5963 ft | 279 kts | 336° |
| 2026-05-08 23:09 | 10.67150 | -75.56751 | 6495 ft | 281 kts | 347° |
| 2026-05-08 23:09 | 10.69060 | -75.57202 | 7028 ft | 283 kts | 348° |
| 2026-05-08 23:10 | 10.70987 | -75.57652 | 7547 ft | 286 kts | 348° |
| 2026-05-08 23:10 | 10.72932 | -75.58103 | 8066 ft | 288 kts | 349° |
| 2026-05-08 23:10 | 10.74887 | -75.58557 | 8599 ft | 289 kts | 349° |
| 2026-05-08 23:10 | 10.76858 | -75.59017 | 9086 ft | 292 kts | 349° |
| 2026-05-08 23:11 | 10.78848 | -75.59482 | 9587 ft | 295 kts | 349° |
| 2026-05-08 23:11 | 10.80855 | -75.59950 | 10039 ft | 297 kts | 349° |
| 2026-05-08 23:11 | 10.82918 | -75.60429 | 10190 ft | 312 kts | 349° |
| 2026-05-08 23:11 | 10.85087 | -75.60932 | 10315 ft | 327 kts | 349° |
| 2026-05-08 23:12 | 10.87349 | -75.61459 | 10435 ft | 340 kts | 349° |
| 2026-05-08 23:12 | 10.89698 | -75.62006 | 10606 ft | 351 kts | 349° |
| 2026-05-08 23:12 | 10.92099 | -75.62566 | 10966 ft | 356 kts | 349° |
| 2026-05-08 23:12 | 10.94521 | -75.63134 | 11395 ft | 358 kts | 349° |
| 2026-05-08 23:13 | 10.96950 | -75.63707 | 11836 ft | 360 kts | 350° |
| 2026-05-08 23:13 | 10.99397 | -75.64287 | 12262 ft | 362 kts | 351° |
| 2026-05-08 23:13 | 11.01859 | -75.64868 | 12693 ft | 364 kts | 351° |
| 2026-05-08 23:13 | 11.04335 | -75.65449 | 13118 ft | 366 kts | 351° |
| 2026-05-08 23:14 | 11.06828 | -75.66030 | 13550 ft | 369 kts | 351° |
| 2026-05-08 23:14 | 11.09336 | -75.66614 | 13936 ft | 371 kts | 351° |
| 2026-05-08 23:14 | 11.11858 | -75.67203 | 14311 ft | 373 kts | 351° |
| 2026-05-08 23:14 | 11.14395 | -75.67795 | 14667 ft | 375 kts | 350° |
| 2026-05-08 23:15 | 11.16949 | -75.68393 | 15018 ft | 378 kts | 350° |
| 2026-05-08 23:15 | 11.19519 | -75.68995 | 15362 ft | 380 kts | 350° |
| 2026-05-08 23:15 | 11.22105 | -75.69602 | 15696 ft | 382 kts | 350° |
| 2026-05-08 23:15 | 11.24705 | -75.70214 | 16027 ft | 385 kts | 350° |
| 2026-05-08 23:16 | 11.27320 | -75.70829 | 16355 ft | 387 kts | 349° |
| 2026-05-08 23:16 | 11.29952 | -75.71448 | 16675 ft | 389 kts | 350° |
| 2026-05-08 23:16 | 11.32596 | -75.72069 | 16990 ft | 391 kts | 349° |
| 2026-05-08 23:16 | 11.35255 | -75.72693 | 17309 ft | 393 kts | 349° |
| 2026-05-08 23:17 | 11.37892 | -75.73311 | 17621 ft | 395 kts | 351° |
| 2026-05-08 23:17 | 11.40574 | -75.73939 | 17932 ft | 396 kts | 350° |
| 2026-05-08 23:17 | 11.43269 | -75.74571 | 18194 ft | 399 kts | 350° |
| 2026-05-08 23:17 | 11.45976 | -75.75206 | 18445 ft | 400 kts | 350° |
| 2026-05-08 23:18 | 11.48693 | -75.75845 | 18685 ft | 401 kts | 349° |
| 2026-05-08 23:18 | 11.51418 | -75.76487 | 18906 ft | 403 kts | 350° |
| 2026-05-08 23:18 | 11.54152 | -75.77131 | 19145 ft | 404 kts | 349° |
| 2026-05-08 23:18 | 11.56890 | -75.77779 | 19361 ft | 405 kts | 349° |
| 2026-05-08 23:19 | 11.59637 | -75.78430 | 19576 ft | 406 kts | 350° |
| 2026-05-08 23:19 | 11.62389 | -75.79078 | 19799 ft | 407 kts | 350° |
| 2026-05-08 23:19 | 11.65152 | -75.79727 | 20008 ft | 408 kts | 350° |
| 2026-05-08 23:19 | 11.67922 | -75.80376 | 20222 ft | 409 kts | 350° |
| 2026-05-08 23:20 | 11.70697 | -75.81028 | 20455 ft | 409 kts | 350° |
| 2026-05-08 23:20 | 11.73475 | -75.81682 | 20673 ft | 410 kts | 350° |
| 2026-05-08 23:20 | 11.76260 | -75.82336 | 20888 ft | 411 kts | 350° |
| 2026-05-08 23:20 | 11.79049 | -75.82990 | 21090 ft | 412 kts | 350° |
| 2026-05-08 23:21 | 11.81852 | -75.83646 | 21298 ft | 414 kts | 351° |
| 2026-05-08 23:21 | 11.84662 | -75.84305 | 21506 ft | 415 kts | 350° |
| 2026-05-08 23:21 | 11.87477 | -75.84971 | 21715 ft | 416 kts | 350° |
| 2026-05-08 23:21 | 11.90302 | -75.85640 | 21919 ft | 418 kts | 350° |
| 2026-05-08 23:22 | 11.93139 | -75.86312 | 22136 ft | 419 kts | 350° |
| 2026-05-08 23:22 | 11.95981 | -75.86986 | 22345 ft | 420 kts | 350° |
| 2026-05-08 23:22 | 11.98837 | -75.87661 | 22566 ft | 422 kts | 350° |
| 2026-05-08 23:22 | 12.01699 | -75.88334 | 22779 ft | 423 kts | 350° |
| 2026-05-08 23:23 | 12.04573 | -75.89010 | 22988 ft | 424 kts | 351° |
| 2026-05-08 23:23 | 12.07455 | -75.89686 | 23211 ft | 426 kts | 350° |
| 2026-05-08 23:23 | 12.10344 | -75.90365 | 23419 ft | 427 kts | 350° |
| 2026-05-08 23:23 | 12.13245 | -75.91049 | 23608 ft | 428 kts | 350° |
| 2026-05-08 23:24 | 12.16153 | -75.91737 | 23795 ft | 430 kts | 350° |
| 2026-05-08 23:24 | 12.19067 | -75.92427 | 23978 ft | 431 kts | 350° |
| 2026-05-08 23:24 | 12.21992 | -75.93118 | 24175 ft | 432 kts | 350° |
| 2026-05-08 23:24 | 12.24922 | -75.93810 | 24355 ft | 433 kts | 350° |
| 2026-05-08 23:25 | 12.27822 | -75.94499 | 24548 ft | 434 kts | 350° |
| 2026-05-08 23:25 | 12.30765 | -75.95197 | 24731 ft | 435 kts | 349° |
| 2026-05-08 23:25 | 12.33721 | -75.95898 | 24905 ft | 436 kts | 350° |
| 2026-05-08 23:25 | 12.36680 | -75.96598 | 25092 ft | 437 kts | 350° |
| 2026-05-08 23:26 | 12.39646 | -75.97294 | 25254 ft | 438 kts | 350° |
| 2026-05-08 23:26 | 12.42621 | -75.97992 | 25446 ft | 439 kts | 350° |
| 2026-05-08 23:26 | 12.45603 | -75.98695 | 25627 ft | 440 kts | 349° |
| 2026-05-08 23:26 | 12.48590 | -75.99405 | 25786 ft | 441 kts | 350° |
| 2026-05-08 23:27 | 12.51581 | -76.00115 | 25978 ft | 442 kts | 350° |
| 2026-05-08 23:27 | 12.54581 | -76.00823 | 26139 ft | 443 kts | 349° |
| 2026-05-08 23:27 | 12.57587 | -76.01536 | 26321 ft | 444 kts | 349° |
| 2026-05-08 23:27 | 12.60598 | -76.02250 | 26487 ft | 445 kts | 349° |
| 2026-05-08 23:28 | 12.63618 | -76.02968 | 26642 ft | 446 kts | 349° |
| 2026-05-08 23:28 | 12.66646 | -76.03689 | 26821 ft | 447 kts | 349° |
| 2026-05-08 23:28 | 12.69680 | -76.04410 | 26971 ft | 449 kts | 349° |
| 2026-05-08 23:28 | 12.72725 | -76.05134 | 27161 ft | 449 kts | 349° |
| 2026-05-08 23:29 | 12.75770 | -76.05856 | 27318 ft | 450 kts | 349° |
| 2026-05-08 23:29 | 12.78830 | -76.06578 | 27460 ft | 452 kts | 349° |
| 2026-05-08 23:29 | 12.81897 | -76.07304 | 27620 ft | 453 kts | 348° |
| 2026-05-08 23:29 | 12.84978 | -76.08035 | 27765 ft | 455 kts | 348° |
| 2026-05-08 23:30 | 12.88064 | -76.08770 | 27933 ft | 456 kts | 349° |
| 2026-05-08 23:30 | 12.91155 | -76.09507 | 28079 ft | 457 kts | 348° |
| 2026-05-08 23:30 | 12.94257 | -76.10246 | 28237 ft | 458 kts | 349° |
| 2026-05-08 23:30 | 12.97363 | -76.10987 | 28395 ft | 459 kts | 348° |
| 2026-05-08 23:31 | 13.00480 | -76.11732 | 28532 ft | 460 kts | 348° |
| 2026-05-08 23:31 | 13.03602 | -76.12474 | 28686 ft | 461 kts | 348° |
| 2026-05-08 23:31 | 13.06729 | -76.13214 | 28830 ft | 462 kts | 348° |
| 2026-05-08 23:31 | 13.09859 | -76.13955 | 29015 ft | 461 kts | 348° |
| 2026-05-08 23:32 | 13.12991 | -76.14697 | 29152 ft | 462 kts | 348° |
| 2026-05-08 23:32 | 13.16127 | -76.15441 | 29284 ft | 463 kts | 348° |
| 2026-05-08 23:32 | 13.19267 | -76.16190 | 29416 ft | 464 kts | 348° |
| 2026-05-08 23:32 | 13.22411 | -76.16943 | 29542 ft | 464 kts | 348° |
| 2026-05-08 23:33 | 13.25558 | -76.17697 | 29681 ft | 465 kts | 348° |
| 2026-05-08 23:33 | 13.28707 | -76.18447 | 29817 ft | 465 kts | 348° |
| 2026-05-08 23:33 | 13.31860 | -76.19197 | 29945 ft | 465 kts | 348° |
| 2026-05-08 23:33 | 13.35012 | -76.19946 | 30064 ft | 465 kts | 347° |
| 2026-05-08 23:34 | 13.38168 | -76.20699 | 30177 ft | 465 kts | 348° |
| 2026-05-08 23:34 | 13.41321 | -76.21447 | 30295 ft | 465 kts | 347° |
| 2026-05-08 23:34 | 13.44477 | -76.22196 | 30409 ft | 466 kts | 347° |
| 2026-05-08 23:34 | 13.47632 | -76.22949 | 30529 ft | 465 kts | 347° |
| 2026-05-08 23:35 | 13.50788 | -76.23706 | 30643 ft | 466 kts | 347° |
| 2026-05-08 23:35 | 13.53940 | -76.24465 | 30761 ft | 466 kts | 347° |
| 2026-05-08 23:35 | 13.57097 | -76.25223 | 30880 ft | 466 kts | 347° |
| 2026-05-08 23:35 | 13.60209 | -76.25970 | 31000 ft | 465 kts | 347° |
| 2026-05-08 23:36 | 13.63403 | -76.26732 | 31145 ft | 465 kts | 347° |
| 2026-05-08 23:36 | 13.66513 | -76.27471 | 31269 ft | 465 kts | 347° |
| 2026-05-08 23:36 | 13.69661 | -76.28218 | 31422 ft | 464 kts | 347° |
| 2026-05-08 23:36 | 13.72805 | -76.28970 | 31547 ft | 464 kts | 347° |
| 2026-05-08 23:37 | 13.75942 | -76.29721 | 31693 ft | 463 kts | 347° |
| 2026-05-08 23:37 | 13.79079 | -76.30469 | 31837 ft | 463 kts | 347° |
| 2026-05-08 23:37 | 13.82216 | -76.31217 | 31972 ft | 462 kts | 347° |
| 2026-05-08 23:37 | 13.85342 | -76.31965 | 32125 ft | 462 kts | 347° |
| 2026-05-08 23:38 | 13.88472 | -76.32716 | 32251 ft | 461 kts | 347° |
| 2026-05-08 23:38 | 13.91594 | -76.33469 | 32412 ft | 460 kts | 347° |
| 2026-05-08 23:38 | 13.94709 | -76.34221 | 32544 ft | 460 kts | 347° |
| 2026-05-08 23:38 | 13.97827 | -76.34970 | 32704 ft | 459 kts | 347° |
| 2026-05-08 23:39 | 14.00938 | -76.35715 | 32855 ft | 459 kts | 347° |
| 2026-05-08 23:39 | 14.04048 | -76.36462 | 32987 ft | 459 kts | 346° |
| 2026-05-08 23:39 | 14.07153 | -76.37204 | 33146 ft | 458 kts | 346° |
| 2026-05-08 23:39 | 14.10253 | -76.37945 | 33287 ft | 458 kts | 346° |
| 2026-05-08 23:40 | 14.13351 | -76.38686 | 33451 ft | 456 kts | 346° |
| 2026-05-08 23:40 | 14.16442 | -76.39429 | 33589 ft | 456 kts | 346° |
| 2026-05-08 23:40 | 14.19529 | -76.40170 | 33743 ft | 455 kts | 346° |
| 2026-05-08 23:40 | 14.22610 | -76.40910 | 33889 ft | 455 kts | 346° |
| 2026-05-08 23:41 | 14.27693 | -76.42134 | 33932 ft | 449 kts | 346° |
| 2026-05-08 23:41 | 14.33772 | -76.43597 | 33927 ft | 448 kts | 346° |
| 2026-05-08 23:42 | 14.39835 | -76.45058 | 33927 ft | 448 kts | 346° |
| 2026-05-08 23:42 | 14.45900 | -76.46517 | 33929 ft | 448 kts | 346° |
| 2026-05-08 23:43 | 14.51961 | -76.47974 | 33922 ft | 447 kts | 346° |
| 2026-05-08 23:43 | 14.58024 | -76.49434 | 33931 ft | 447 kts | 346° |
| 2026-05-08 23:44 | 14.64085 | -76.50895 | 33935 ft | 447 kts | 346° |
| 2026-05-08 23:44 | 14.70114 | -76.52353 | 33934 ft | 448 kts | 346° |
| 2026-05-08 23:45 | 14.76230 | -76.53834 | 33936 ft | 449 kts | 346° |
| 2026-05-08 23:45 | 14.82270 | -76.55286 | 33945 ft | 449 kts | 346° |
| 2026-05-08 23:46 | 14.88354 | -76.56759 | 33947 ft | 449 kts | 346° |
| 2026-05-08 23:46 | 14.94440 | -76.58232 | 33950 ft | 449 kts | 346° |
| 2026-05-08 23:47 | 15.00521 | -76.59706 | 33950 ft | 449 kts | 346° |
| 2026-05-08 23:47 | 15.06604 | -76.61176 | 33953 ft | 449 kts | 346° |
| 2026-05-08 23:48 | 15.12685 | -76.62645 | 33957 ft | 449 kts | 346° |
| 2026-05-08 23:48 | 15.18764 | -76.64125 | 33957 ft | 449 kts | 346° |
| 2026-05-08 23:49 | 15.24846 | -76.65598 | 33966 ft | 449 kts | 346° |
| 2026-05-08 23:49 | 15.30921 | -76.67070 | 33965 ft | 448 kts | 346° |
| 2026-05-08 23:50 | 15.36996 | -76.68554 | 33961 ft | 448 kts | 346° |
| 2026-05-08 23:50 | 15.43069 | -76.70031 | 33965 ft | 448 kts | 346° |
| 2026-05-08 23:51 | 15.49143 | -76.71501 | 33964 ft | 448 kts | 346° |
| 2026-05-08 23:51 | 15.55212 | -76.72978 | 33963 ft | 448 kts | 346° |
| 2026-05-08 23:52 | 15.61285 | -76.74453 | 33963 ft | 448 kts | 346° |
| 2026-05-08 23:52 | 15.67356 | -76.75930 | 33968 ft | 448 kts | 346° |
| 2026-05-08 23:53 | 15.73388 | -76.77402 | 33972 ft | 448 kts | 346° |
| 2026-05-08 23:53 | 15.79461 | -76.78881 | 33972 ft | 448 kts | 346° |
| 2026-05-08 23:54 | 15.85533 | -76.80364 | 33970 ft | 448 kts | 346° |
| 2026-05-08 23:55 | 15.94639 | -76.82585 | 33972 ft | 448 kts | 346° |
| 2026-05-08 23:55 | 16.00710 | -76.84080 | 33968 ft | 449 kts | 346° |
| 2026-05-08 23:56 | 16.06797 | -76.85562 | 33966 ft | 449 kts | 346° |
| 2026-05-08 23:56 | 16.12885 | -76.87048 | 33970 ft | 450 kts | 346° |
| 2026-05-08 23:57 | 16.18979 | -76.88549 | 33969 ft | 450 kts | 346° |
| 2026-05-08 23:57 | 16.25086 | -76.90045 | 33971 ft | 451 kts | 346° |
| 2026-05-08 23:58 | 16.31200 | -76.91537 | 33970 ft | 451 kts | 346° |
| 2026-05-08 23:58 | 16.37314 | -76.93041 | 33972 ft | 452 kts | 346° |
| 2026-05-08 23:59 | 16.43433 | -76.94543 | 33975 ft | 452 kts | 346° |
| 2026-05-08 23:59 | 16.49554 | -76.96051 | 33979 ft | 452 kts | 346° |
| 2026-05-09 00:00 | 16.55633 | -76.97537 | 33982 ft | 452 kts | 346° |
| 2026-05-09 00:00 | 16.61754 | -76.99042 | 33985 ft | 452 kts | 346° |
| 2026-05-09 00:01 | 16.67874 | -77.00552 | 33984 ft | 452 kts | 346° |
| 2026-05-09 00:01 | 16.73987 | -77.02059 | 33983 ft | 452 kts | 346° |
| 2026-05-09 00:02 | 16.80101 | -77.03563 | 33986 ft | 451 kts | 346° |
| 2026-05-09 00:02 | 16.86213 | -77.05073 | 33984 ft | 451 kts | 346° |
| 2026-05-09 00:03 | 16.92325 | -77.06584 | 33991 ft | 451 kts | 346° |
| 2026-05-09 00:03 | 16.98441 | -77.08089 | 33990 ft | 451 kts | 346° |
| 2026-05-09 00:04 | 17.04551 | -77.09592 | 33993 ft | 451 kts | 346° |
| 2026-05-09 00:04 | 17.10659 | -77.11102 | 33991 ft | 451 kts | 346° |
| 2026-05-09 00:05 | 17.16760 | -77.12626 | 33990 ft | 451 kts | 346° |
| 2026-05-09 00:05 | 17.22865 | -77.14140 | 33984 ft | 451 kts | 346° |
| 2026-05-09 00:06 | 17.28968 | -77.15645 | 33979 ft | 451 kts | 346° |
| 2026-05-09 00:06 | 17.35071 | -77.17163 | 33976 ft | 451 kts | 346° |
| 2026-05-09 00:07 | 17.41164 | -77.18677 | 33980 ft | 450 kts | 346° |
| 2026-05-09 00:07 | 17.47255 | -77.20184 | 33979 ft | 449 kts | 346° |
| 2026-05-09 00:08 | 17.53338 | -77.21697 | 33979 ft | 449 kts | 346° |
| 2026-05-09 00:08 | 17.59418 | -77.23208 | 33984 ft | 449 kts | 346° |
| 2026-05-09 00:09 | 17.65491 | -77.24721 | 33981 ft | 448 kts | 346° |
| 2026-05-09 00:09 | 17.71561 | -77.26233 | 33981 ft | 448 kts | 346° |
| 2026-05-09 00:10 | 17.77632 | -77.27743 | 33979 ft | 448 kts | 346° |
| 2026-05-09 00:10 | 17.83702 | -77.29255 | 33980 ft | 448 kts | 346° |
| 2026-05-09 00:11 | 17.89766 | -77.30773 | 33983 ft | 448 kts | 346° |
| 2026-05-09 00:11 | 17.95831 | -77.32289 | 33982 ft | 448 kts | 346° |
| 2026-05-09 00:12 | 18.01898 | -77.33806 | 33989 ft | 448 kts | 346° |
| 2026-05-09 00:12 | 18.07963 | -77.35323 | 33991 ft | 448 kts | 346° |
| 2026-05-09 00:13 | 18.14025 | -77.36835 | 33990 ft | 448 kts | 346° |
| 2026-05-09 00:13 | 18.20087 | -77.38351 | 34007 ft | 447 kts | 346° |
| 2026-05-09 00:14 | 18.26105 | -77.39864 | 34010 ft | 447 kts | 346° |
| 2026-05-09 00:14 | 18.32160 | -77.41391 | 34010 ft | 447 kts | 346° |
| 2026-05-09 00:15 | 18.38215 | -77.42908 | 34013 ft | 447 kts | 347° |
| 2026-05-09 00:15 | 18.44268 | -77.44424 | 34014 ft | 447 kts | 347° |
| 2026-05-09 00:16 | 18.50316 | -77.45937 | 34015 ft | 446 kts | 347° |
| 2026-05-09 00:16 | 18.56356 | -77.47454 | 34003 ft | 446 kts | 346° |
| 2026-05-09 00:17 | 18.62396 | -77.48978 | 34004 ft | 446 kts | 346° |
| 2026-05-09 00:17 | 18.68434 | -77.50502 | 34002 ft | 446 kts | 346° |
| 2026-05-09 00:18 | 18.74467 | -77.52024 | 34007 ft | 445 kts | 347° |
| 2026-05-09 00:18 | 18.80489 | -77.53542 | 34007 ft | 444 kts | 347° |
| 2026-05-09 00:19 | 18.86501 | -77.55054 | 34010 ft | 444 kts | 347° |
| 2026-05-09 00:19 | 18.92503 | -77.56566 | 34006 ft | 443 kts | 347° |
| 2026-05-09 00:20 | 18.98499 | -77.58086 | 34003 ft | 443 kts | 347° |
| 2026-05-09 00:20 | 19.04489 | -77.59610 | 33994 ft | 443 kts | 347° |
| 2026-05-09 00:21 | 19.10489 | -77.61124 | 33994 ft | 443 kts | 347° |
| 2026-05-09 00:21 | 19.16492 | -77.62636 | 33995 ft | 443 kts | 347° |
| 2026-05-09 00:22 | 19.22492 | -77.64156 | 33992 ft | 444 kts | 347° |
| 2026-05-09 00:22 | 19.28496 | -77.65684 | 33994 ft | 444 kts | 347° |
| 2026-05-09 00:23 | 19.34496 | -77.67212 | 33996 ft | 444 kts | 347° |
| 2026-05-09 00:23 | 19.40458 | -77.68731 | 33991 ft | 444 kts | 347° |
| 2026-05-09 00:24 | 19.46462 | -77.70255 | 33993 ft | 443 kts | 347° |
| 2026-05-09 00:24 | 19.52463 | -77.71778 | 33993 ft | 443 kts | 347° |
| 2026-05-09 00:25 | 19.58461 | -77.73301 | 33998 ft | 443 kts | 347° |
| 2026-05-09 00:25 | 19.64460 | -77.74833 | 33999 ft | 443 kts | 347° |
| 2026-05-09 00:26 | 19.70457 | -77.76367 | 33997 ft | 443 kts | 347° |
| 2026-05-09 00:26 | 19.76454 | -77.77902 | 33994 ft | 443 kts | 347° |
| 2026-05-09 00:27 | 19.82454 | -77.79433 | 33987 ft | 443 kts | 347° |
| 2026-05-09 00:27 | 19.88452 | -77.80966 | 33987 ft | 443 kts | 347° |
| 2026-05-09 00:28 | 19.94453 | -77.82499 | 33987 ft | 444 kts | 347° |
| 2026-05-09 00:28 | 20.00456 | -77.84029 | 33989 ft | 444 kts | 347° |
| 2026-05-09 00:29 | 20.06457 | -77.85568 | 33992 ft | 443 kts | 346° |
| 2026-05-09 00:29 | 20.11442 | -77.86849 | 33993 ft | 443 kts | 346° |
| 2026-05-09 00:30 | 20.17434 | -77.88395 | 33990 ft | 443 kts | 346° |
| 2026-05-09 00:30 | 20.24395 | -77.90182 | 33993 ft | 443 kts | 346° |
| 2026-05-09 00:31 | 20.30385 | -77.91720 | 33993 ft | 443 kts | 346° |
| 2026-05-09 00:31 | 20.35402 | -77.93010 | 33996 ft | 443 kts | 346° |
| 2026-05-09 00:32 | 20.41389 | -77.94552 | 33994 ft | 443 kts | 346° |
| 2026-05-09 00:32 | 20.47335 | -77.96076 | 33995 ft | 442 kts | 346° |
| 2026-05-09 00:33 | 20.53317 | -77.97619 | 33997 ft | 442 kts | 346° |
| 2026-05-09 00:33 | 20.59288 | -77.99165 | 33999 ft | 442 kts | 346° |
| 2026-05-09 00:34 | 20.65260 | -78.00708 | 33996 ft | 441 kts | 346° |
| 2026-05-09 00:34 | 20.71233 | -78.02252 | 33996 ft | 441 kts | 346° |
| 2026-05-09 00:35 | 20.77198 | -78.03799 | 34008 ft | 441 kts | 346° |
| 2026-05-09 00:35 | 20.83162 | -78.05346 | 34008 ft | 441 kts | 346° |
| 2026-05-09 00:36 | 20.89117 | -78.06885 | 34005 ft | 440 kts | 346° |
| 2026-05-09 00:36 | 20.95070 | -78.08422 | 34003 ft | 440 kts | 346° |
| 2026-05-09 00:37 | 21.01020 | -78.09969 | 34008 ft | 440 kts | 346° |
| 2026-05-09 00:37 | 21.06971 | -78.11520 | 34007 ft | 440 kts | 346° |
| 2026-05-09 00:38 | 21.12924 | -78.13064 | 34004 ft | 440 kts | 346° |
| 2026-05-09 00:38 | 21.18880 | -78.14616 | 34005 ft | 440 kts | 346° |
| 2026-05-09 00:39 | 21.24831 | -78.16166 | 34004 ft | 440 kts | 346° |
| 2026-05-09 00:39 | 21.30786 | -78.17714 | 34004 ft | 440 kts | 346° |
| 2026-05-09 00:40 | 21.36738 | -78.19262 | 34003 ft | 440 kts | 346° |
| 2026-05-09 00:40 | 21.42685 | -78.20816 | 34014 ft | 440 kts | 345° |
| 2026-05-09 00:41 | 21.51566 | -78.23138 | 34010 ft | 440 kts | 345° |
| 2026-05-09 00:41 | 21.57553 | -78.24707 | 34011 ft | 440 kts | 345° |
| 2026-05-09 00:42 | 21.63458 | -78.26254 | 34009 ft | 439 kts | 345° |
| 2026-05-09 00:42 | 21.69397 | -78.27811 | 34009 ft | 440 kts | 345° |
| 2026-05-09 00:43 | 21.75341 | -78.29369 | 34009 ft | 439 kts | 345° |
| 2026-05-09 00:43 | 21.81276 | -78.30930 | 34010 ft | 439 kts | 345° |
| 2026-05-09 00:44 | 21.87215 | -78.32494 | 34009 ft | 439 kts | 345° |
| 2026-05-09 00:44 | 21.93154 | -78.34060 | 34009 ft | 439 kts | 345° |
| 2026-05-09 00:45 | 21.99095 | -78.35616 | 34010 ft | 440 kts | 345° |
| 2026-05-09 00:45 | 22.05039 | -78.37176 | 34015 ft | 440 kts | 345° |
| 2026-05-09 00:46 | 22.10978 | -78.38747 | 34015 ft | 439 kts | 345° |
| 2026-05-09 00:46 | 22.16912 | -78.40320 | 34015 ft | 439 kts | 345° |
| 2026-05-09 00:47 | 22.22848 | -78.41884 | 34019 ft | 439 kts | 345° |
| 2026-05-09 00:47 | 22.28781 | -78.43445 | 34018 ft | 439 kts | 345° |
| 2026-05-09 00:48 | 22.34709 | -78.45011 | 34012 ft | 438 kts | 345° |
| 2026-05-09 00:48 | 22.40631 | -78.46579 | 34018 ft | 438 kts | 344° |
| 2026-05-09 00:49 | 22.46542 | -78.48146 | 34016 ft | 437 kts | 344° |
| 2026-05-09 00:49 | 22.52452 | -78.49715 | 34013 ft | 437 kts | 344° |
| 2026-05-09 00:50 | 22.58360 | -78.51283 | 34013 ft | 437 kts | 344° |
| 2026-05-09 00:50 | 22.64231 | -78.52841 | 34013 ft | 437 kts | 344° |
| 2026-05-09 00:51 | 22.70141 | -78.54418 | 34023 ft | 437 kts | 344° |
| 2026-05-09 00:51 | 22.76048 | -78.55991 | 34022 ft | 437 kts | 344° |
| 2026-05-09 00:52 | 22.81995 | -78.57385 | 34021 ft | 438 kts | 347° |
| 2026-05-09 00:52 | 22.88008 | -78.58454 | 34022 ft | 438 kts | 349° |
| 2026-05-09 00:53 | 22.94025 | -78.59482 | 34018 ft | 438 kts | 348° |
| 2026-05-09 00:53 | 23.00028 | -78.60593 | 34017 ft | 437 kts | 348° |
| 2026-05-09 00:54 | 23.06024 | -78.61737 | 34022 ft | 437 kts | 347° |
| 2026-05-09 00:54 | 23.12016 | -78.62872 | 34024 ft | 437 kts | 347° |
| 2026-05-09 00:55 | 23.18008 | -78.64010 | 34020 ft | 437 kts | 347° |
| 2026-05-09 00:55 | 23.23998 | -78.65144 | 34020 ft | 437 kts | 347° |
| 2026-05-09 00:56 | 23.29991 | -78.66268 | 34017 ft | 437 kts | 347° |
| 2026-05-09 00:56 | 23.35987 | -78.67399 | 34030 ft | 437 kts | 347° |
| 2026-05-09 00:57 | 23.41980 | -78.68541 | 34029 ft | 437 kts | 347° |
| 2026-05-09 00:57 | 23.47977 | -78.69683 | 34026 ft | 437 kts | 347° |
| 2026-05-09 00:58 | 23.53975 | -78.70819 | 34025 ft | 438 kts | 347° |
| 2026-05-09 00:58 | 23.59973 | -78.71961 | 34027 ft | 438 kts | 347° |
| 2026-05-09 00:59 | 23.65977 | -78.73099 | 34033 ft | 438 kts | 347° |
| 2026-05-09 00:59 | 23.71982 | -78.74241 | 34021 ft | 438 kts | 346° |
| 2026-05-09 01:00 | 23.77985 | -78.75383 | 34021 ft | 438 kts | 346° |
| 2026-05-09 01:00 | 23.83985 | -78.76522 | 34022 ft | 438 kts | 347° |
| 2026-05-09 01:01 | 23.89987 | -78.77661 | 34024 ft | 438 kts | 347° |
| 2026-05-09 01:01 | 23.95945 | -78.78798 | 34021 ft | 438 kts | 346° |
| 2026-05-09 01:02 | 24.01701 | -78.80717 | 34031 ft | 430 kts | 329° |
| 2026-05-09 01:02 | 24.06858 | -78.83983 | 34027 ft | 428 kts | 326° |
| 2026-05-09 01:03 | 24.12000 | -78.87288 | 34026 ft | 429 kts | 327° |
| 2026-05-09 01:03 | 24.17149 | -78.90590 | 34026 ft | 429 kts | 327° |
| 2026-05-09 01:04 | 24.22293 | -78.93901 | 34025 ft | 428 kts | 326° |
| 2026-05-09 01:04 | 24.27427 | -78.97211 | 34021 ft | 428 kts | 326° |
| 2026-05-09 01:05 | 24.32569 | -79.00522 | 34023 ft | 429 kts | 326° |
| 2026-05-09 01:06 | 24.40283 | -79.05500 | 34025 ft | 429 kts | 326° |
| 2026-05-09 01:06 | 24.45416 | -79.08818 | 34029 ft | 428 kts | 326° |
| 2026-05-09 01:07 | 24.50550 | -79.12138 | 34027 ft | 428 kts | 326° |
| 2026-05-09 01:07 | 24.55641 | -79.15440 | 34026 ft | 428 kts | 326° |
| 2026-05-09 01:08 | 24.60764 | -79.18765 | 34028 ft | 428 kts | 326° |
| 2026-05-09 01:08 | 24.65892 | -79.22090 | 34036 ft | 427 kts | 326° |
| 2026-05-09 01:09 | 24.71010 | -79.25415 | 34033 ft | 427 kts | 326° |
| 2026-05-09 01:09 | 24.76125 | -79.28736 | 34031 ft | 427 kts | 326° |
| 2026-05-09 01:10 | 24.81231 | -79.32061 | 34032 ft | 427 kts | 326° |
| 2026-05-09 01:10 | 24.86337 | -79.35393 | 34032 ft | 426 kts | 326° |
| 2026-05-09 01:11 | 24.91442 | -79.38721 | 34033 ft | 426 kts | 326° |
| 2026-05-09 01:11 | 24.96550 | -79.42049 | 34048 ft | 426 kts | 326° |
| 2026-05-09 01:12 | 25.01653 | -79.45378 | 34047 ft | 426 kts | 326° |
| 2026-05-09 01:12 | 25.06743 | -79.48708 | 34042 ft | 425 kts | 326° |
| 2026-05-09 01:13 | 25.11824 | -79.52038 | 34038 ft | 425 kts | 326° |
| 2026-05-09 01:13 | 25.16905 | -79.55365 | 34036 ft | 425 kts | 326° |
| 2026-05-09 01:14 | 25.21984 | -79.58691 | 34035 ft | 424 kts | 326° |
| 2026-05-09 01:14 | 25.27061 | -79.62023 | 34033 ft | 424 kts | 326° |
| 2026-05-09 01:15 | 25.32127 | -79.65363 | 34048 ft | 423 kts | 325° |
| 2026-05-09 01:15 | 25.37178 | -79.68695 | 34043 ft | 422 kts | 325° |
| 2026-05-09 01:16 | 25.42241 | -79.72026 | 34152 ft | 425 kts | 325° |
| 2026-05-09 01:16 | 25.44787 | -79.73696 | 34277 ft | 426 kts | 325° |
| 2026-05-09 01:16 | 25.47340 | -79.75369 | 34435 ft | 426 kts | 325° |
| 2026-05-09 01:17 | 25.52426 | -79.78720 | 34782 ft | 425 kts | 325° |
| 2026-05-09 01:17 | 25.54960 | -79.80396 | 34974 ft | 424 kts | 325° |
| 2026-05-09 01:17 | 25.57488 | -79.82069 | 35152 ft | 423 kts | 325° |
| 2026-05-09 01:17 | 25.60016 | -79.83740 | 35349 ft | 422 kts | 325° |
| 2026-05-09 01:18 | 25.62537 | -79.85405 | 35539 ft | 421 kts | 325° |
| 2026-05-09 01:18 | 25.65052 | -79.87067 | 35730 ft | 420 kts | 325° |
| 2026-05-09 01:18 | 25.66713 | -79.88165 | 35845 ft | 420 kts | 325° |
| 2026-05-09 01:18 | 25.69218 | -79.89822 | 35989 ft | 419 kts | 325° |
| 2026-05-09 01:19 | 25.74219 | -79.93137 | 36018 ft | 418 kts | 325° |
| 2026-05-09 01:19 | 25.79214 | -79.96449 | 36021 ft | 418 kts | 325° |
| 2026-05-09 01:20 | 25.84203 | -79.99762 | 36023 ft | 418 kts | 325° |
| 2026-05-09 01:20 | 25.89191 | -80.03083 | 36014 ft | 418 kts | 325° |
| 2026-05-09 01:21 | 25.94177 | -80.06402 | 36031 ft | 418 kts | 324° |
| 2026-05-09 01:21 | 25.99166 | -80.09725 | 36031 ft | 418 kts | 324° |
| 2026-05-09 01:22 | 26.04121 | -80.13030 | 36033 ft | 418 kts | 324° |
| 2026-05-09 01:22 | 26.09111 | -80.16352 | 36031 ft | 418 kts | 324° |
| 2026-05-09 01:23 | 26.14116 | -80.19662 | 36031 ft | 420 kts | 328° |
| 2026-05-09 01:23 | 26.19644 | -80.21937 | 36031 ft | 426 kts | 337° |
| 2026-05-09 01:24 | 26.25309 | -80.23901 | 36048 ft | 426 kts | 336° |
| 2026-05-09 01:24 | 26.30962 | -80.25870 | 36039 ft | 425 kts | 336° |
| 2026-05-09 01:25 | 26.36607 | -80.27842 | 36026 ft | 425 kts | 336° |
| 2026-05-09 01:25 | 26.42255 | -80.29808 | 36029 ft | 425 kts | 336° |
| 2026-05-09 01:26 | 26.47891 | -80.31782 | 36016 ft | 425 kts | 336° |
| 2026-05-09 01:26 | 26.53529 | -80.33759 | 36030 ft | 425 kts | 336° |
| 2026-05-09 01:27 | 26.59169 | -80.35733 | 36044 ft | 425 kts | 336° |
| 2026-05-09 01:27 | 26.64801 | -80.37706 | 36040 ft | 424 kts | 336° |
| 2026-05-09 01:28 | 26.70432 | -80.39689 | 36031 ft | 424 kts | 336° |
| 2026-05-09 01:28 | 26.76059 | -80.41671 | 36013 ft | 424 kts | 336° |
| 2026-05-09 01:29 | 26.81653 | -80.43632 | 36014 ft | 424 kts | 336° |
| 2026-05-09 01:29 | 26.87281 | -80.45607 | 36021 ft | 424 kts | 336° |
| 2026-05-09 01:30 | 26.92907 | -80.47594 | 36009 ft | 424 kts | 335° |
| 2026-05-09 01:30 | 26.98534 | -80.49588 | 36009 ft | 424 kts | 335° |
| 2026-05-09 01:31 | 27.04161 | -80.51581 | 36011 ft | 424 kts | 336° |
| 2026-05-09 01:31 | 27.09791 | -80.53568 | 36010 ft | 424 kts | 336° |
| 2026-05-09 01:32 | 27.15423 | -80.55560 | 36021 ft | 424 kts | 335° |
| 2026-05-09 01:32 | 27.21033 | -80.57542 | 36012 ft | 422 kts | 335° |
| 2026-05-09 01:33 | 27.26627 | -80.59529 | 36009 ft | 422 kts | 335° |
| 2026-05-09 01:33 | 27.32222 | -80.61521 | 36003 ft | 422 kts | 335° |
| 2026-05-09 01:34 | 27.37816 | -80.63507 | 36014 ft | 422 kts | 335° |
| 2026-05-09 01:34 | 27.43416 | -80.65497 | 36005 ft | 422 kts | 335° |
| 2026-05-09 01:35 | 27.49013 | -80.67501 | 36008 ft | 422 kts | 335° |
| 2026-05-09 01:35 | 27.54572 | -80.69488 | 36010 ft | 422 kts | 335° |
| 2026-05-09 01:36 | 27.60207 | -80.71500 | 36008 ft | 422 kts | 335° |
| 2026-05-09 01:36 | 27.65802 | -80.73498 | 36008 ft | 422 kts | 335° |
| 2026-05-09 01:37 | 27.71358 | -80.75486 | 36008 ft | 422 kts | 335° |
| 2026-05-09 01:37 | 27.76955 | -80.77490 | 36032 ft | 422 kts | 334° |
| 2026-05-09 01:38 | 27.82547 | -80.79494 | 36023 ft | 422 kts | 334° |
| 2026-05-09 01:38 | 27.88134 | -80.81501 | 36021 ft | 421 kts | 334° |
| 2026-05-09 01:39 | 27.93718 | -80.83509 | 36018 ft | 421 kts | 334° |
| 2026-05-09 01:39 | 27.99300 | -80.85518 | 36018 ft | 421 kts | 334° |
| 2026-05-09 01:40 | 28.04884 | -80.87526 | 36017 ft | 421 kts | 334° |
| 2026-05-09 01:40 | 28.10460 | -80.89544 | 36038 ft | 421 kts | 334° |
| 2026-05-09 01:41 | 28.16034 | -80.91563 | 36019 ft | 420 kts | 334° |
| 2026-05-09 01:41 | 28.21608 | -80.93573 | 36016 ft | 420 kts | 334° |
| 2026-05-09 01:42 | 28.27183 | -80.95591 | 36018 ft | 420 kts | 334° |
| 2026-05-09 01:42 | 28.32756 | -80.97599 | 36020 ft | 420 kts | 334° |
| 2026-05-09 01:43 | 28.38328 | -80.99617 | 36036 ft | 420 kts | 333° |
| 2026-05-09 01:43 | 28.43898 | -81.01644 | 36028 ft | 420 kts | 333° |
| 2026-05-09 01:44 | 28.49468 | -81.03672 | 36026 ft | 421 kts | 333° |
| 2026-05-09 01:44 | 28.55042 | -81.05702 | 36021 ft | 420 kts | 333° |
| 2026-05-09 01:45 | 28.60609 | -81.07727 | 36024 ft | 420 kts | 333° |
| 2026-05-09 01:45 | 28.66179 | -81.09754 | 36030 ft | 420 kts | 333° |
| 2026-05-09 01:46 | 28.71746 | -81.11788 | 36053 ft | 420 kts | 333° |
| 2026-05-09 01:46 | 28.77318 | -81.13828 | 36049 ft | 421 kts | 333° |
| 2026-05-09 01:47 | 28.82858 | -81.15859 | 36035 ft | 421 kts | 333° |
| 2026-05-09 01:47 | 28.88442 | -81.17899 | 36051 ft | 422 kts | 333° |
| 2026-05-09 01:48 | 28.94019 | -81.19938 | 35983 ft | 419 kts | 333° |
| 2026-05-09 01:48 | 28.99565 | -81.21971 | 35781 ft | 418 kts | 332° |
| 2026-05-09 01:49 | 29.02335 | -81.22992 | 35662 ft | 419 kts | 332° |
| 2026-05-09 01:49 | 29.05107 | -81.24016 | 35542 ft | 419 kts | 332° |
| 2026-05-09 01:49 | 29.07884 | -81.25044 | 35423 ft | 420 kts | 332° |
| 2026-05-09 01:49 | 29.10661 | -81.26071 | 35306 ft | 420 kts | 332° |
| 2026-05-09 01:50 | 29.13447 | -81.27098 | 35161 ft | 421 kts | 333° |
| 2026-05-09 01:50 | 29.16231 | -81.28122 | 35035 ft | 420 kts | 333° |
| 2026-05-09 01:50 | 29.21806 | -81.30175 | 35051 ft | 421 kts | 332° |
| 2026-05-09 01:51 | 29.27439 | -81.32117 | 35024 ft | 429 kts | 339° |
| 2026-05-09 01:51 | 29.30448 | -81.32499 | 35012 ft | 440 kts | 347° |
| 2026-05-09 01:51 | 29.33511 | -81.32673 | 35015 ft | 441 kts | 347° |
| 2026-05-09 01:52 | 29.39640 | -81.33026 | 35013 ft | 441 kts | 347° |
| 2026-05-09 01:52 | 29.45771 | -81.33385 | 35024 ft | 441 kts | 347° |
| 2026-05-09 01:53 | 29.51899 | -81.33744 | 35026 ft | 441 kts | 347° |
| 2026-05-09 01:53 | 29.57991 | -81.34097 | 35071 ft | 441 kts | 346° |
| 2026-05-09 01:54 | 29.64123 | -81.34463 | 35066 ft | 441 kts | 346° |
| 2026-05-09 01:54 | 29.70247 | -81.34829 | 35060 ft | 440 kts | 346° |
| 2026-05-09 01:55 | 29.76364 | -81.35196 | 35057 ft | 440 kts | 346° |
| 2026-05-09 01:55 | 29.82483 | -81.35559 | 35053 ft | 440 kts | 346° |
| 2026-05-09 01:56 | 29.88597 | -81.35925 | 35070 ft | 440 kts | 346° |
| 2026-05-09 01:56 | 29.94710 | -81.36285 | 35062 ft | 440 kts | 346° |
| 2026-05-09 01:57 | 30.00821 | -81.36648 | 35053 ft | 440 kts | 346° |
| 2026-05-09 01:57 | 30.06888 | -81.37012 | 35057 ft | 439 kts | 346° |
| 2026-05-09 01:58 | 30.12995 | -81.37377 | 35089 ft | 441 kts | 346° |
| 2026-05-09 01:58 | 30.19126 | -81.37743 | 35067 ft | 442 kts | 346° |
| 2026-05-09 01:59 | 30.25271 | -81.38114 | 35035 ft | 442 kts | 346° |
| 2026-05-09 01:59 | 30.31423 | -81.38483 | 35033 ft | 443 kts | 347° |
| 2026-05-09 02:00 | 30.37588 | -81.38852 | 35032 ft | 444 kts | 346° |
| 2026-05-09 02:00 | 30.43760 | -81.39219 | 35055 ft | 444 kts | 347° |
| 2026-05-09 02:01 | 30.49940 | -81.39578 | 35061 ft | 445 kts | 347° |
| 2026-05-09 02:01 | 30.56131 | -81.39906 | 35097 ft | 446 kts | 347° |
| 2026-05-09 02:02 | 30.62326 | -81.40222 | 35100 ft | 446 kts | 347° |
| 2026-05-09 02:02 | 30.68520 | -81.40542 | 35135 ft | 445 kts | 347° |
| 2026-05-09 02:03 | 30.74709 | -81.40870 | 35111 ft | 445 kts | 347° |
| 2026-05-09 02:03 | 30.80896 | -81.41196 | 35094 ft | 445 kts | 347° |
| 2026-05-09 02:04 | 30.87077 | -81.41526 | 35079 ft | 444 kts | 346° |
| 2026-05-09 02:04 | 30.93212 | -81.41862 | 35071 ft | 444 kts | 346° |
| 2026-05-09 02:05 | 30.99434 | -81.42191 | 35111 ft | 445 kts | 346° |
| 2026-05-09 02:05 | 31.05575 | -81.42512 | 35110 ft | 445 kts | 346° |
| 2026-05-09 02:06 | 31.11752 | -81.42833 | 35104 ft | 444 kts | 346° |
| 2026-05-09 02:07 | 31.21002 | -81.43341 | 35137 ft | 443 kts | 346° |
| 2026-05-09 02:07 | 31.27171 | -81.43655 | 35138 ft | 444 kts | 347° |
| 2026-05-09 02:08 | 31.33367 | -81.43757 | 35124 ft | 446 kts | 349° |
| 2026-05-09 02:08 | 31.39585 | -81.43759 | 35112 ft | 447 kts | 349° |
| 2026-05-09 02:09 | 31.45817 | -81.43719 | 35100 ft | 453 kts | 354° |
| 2026-05-09 02:09 | 31.48980 | -81.43161 | 35093 ft | 467 kts | 4° |
| 2026-05-09 02:09 | 31.52072 | -81.42014 | 35112 ft | 476 kts | 9° |
| 2026-05-09 02:10 | 31.58320 | -81.39435 | 35094 ft | 476 kts | 9° |
| 2026-05-09 02:10 | 31.64559 | -81.36854 | 35087 ft | 475 kts | 9° |
| 2026-05-09 02:11 | 31.70800 | -81.34280 | 35084 ft | 475 kts | 9° |
| 2026-05-09 02:11 | 31.77040 | -81.31714 | 35082 ft | 475 kts | 9° |
| 2026-05-09 02:12 | 31.83282 | -81.29155 | 35085 ft | 475 kts | 10° |
| 2026-05-09 02:12 | 31.88471 | -81.27016 | 35080 ft | 476 kts | 10° |
| 2026-05-09 02:13 | 31.94717 | -81.24483 | 35082 ft | 470 kts | 5° |
| 2026-05-09 02:13 | 31.97873 | -81.23732 | 35082 ft | 457 kts | 356° |
| 2026-05-09 02:13 | 32.01006 | -81.23500 | 35081 ft | 449 kts | 352° |
| 2026-05-09 02:14 | 32.07250 | -81.23210 | 35146 ft | 449 kts | 351° |
| 2026-05-09 02:14 | 32.13503 | -81.22910 | 35125 ft | 450 kts | 352° |
| 2026-05-09 02:15 | 32.19755 | -81.22598 | 35114 ft | 450 kts | 352° |
| 2026-05-09 02:15 | 32.26011 | -81.22277 | 35106 ft | 450 kts | 352° |
| 2026-05-09 02:16 | 32.32268 | -81.21956 | 35110 ft | 450 kts | 351° |
| 2026-05-09 02:16 | 32.38525 | -81.21648 | 35077 ft | 450 kts | 351° |
| 2026-05-09 02:17 | 32.44774 | -81.21343 | 35073 ft | 450 kts | 351° |
| 2026-05-09 02:17 | 32.51032 | -81.20975 | 35071 ft | 452 kts | 353° |
| 2026-05-09 02:18 | 32.57325 | -81.20279 | 35065 ft | 455 kts | 355° |
| 2026-05-09 02:18 | 32.63626 | -81.19464 | 35091 ft | 455 kts | 354° |
| 2026-05-09 02:19 | 32.69918 | -81.18699 | 35085 ft | 454 kts | 354° |
| 2026-05-09 02:19 | 32.76199 | -81.17990 | 35081 ft | 453 kts | 353° |
| 2026-05-09 02:20 | 32.82480 | -81.17295 | 35084 ft | 453 kts | 354° |
| 2026-05-09 02:20 | 32.88712 | -81.16589 | 35084 ft | 452 kts | 353° |
| 2026-05-09 02:21 | 32.94966 | -81.15875 | 35078 ft | 451 kts | 353° |
| 2026-05-09 02:21 | 33.01220 | -81.15164 | 35077 ft | 451 kts | 353° |
| 2026-05-09 02:22 | 33.07475 | -81.14446 | 35066 ft | 452 kts | 353° |
| 2026-05-09 02:22 | 33.13732 | -81.13731 | 35069 ft | 452 kts | 353° |
| 2026-05-09 02:23 | 33.19989 | -81.13008 | 35066 ft | 452 kts | 353° |
| 2026-05-09 02:23 | 33.26242 | -81.12283 | 35064 ft | 452 kts | 353° |
| 2026-05-09 02:24 | 33.32498 | -81.11569 | 35066 ft | 451 kts | 353° |
| 2026-05-09 02:24 | 33.38752 | -81.10858 | 35098 ft | 451 kts | 353° |
| 2026-05-09 02:25 | 33.45008 | -81.10138 | 35064 ft | 452 kts | 353° |
| 2026-05-09 02:25 | 33.51272 | -81.09410 | 35062 ft | 452 kts | 353° |
| 2026-05-09 02:26 | 33.57544 | -81.08678 | 35060 ft | 453 kts | 353° |
| 2026-05-09 02:26 | 33.63778 | -81.07947 | 35098 ft | 453 kts | 353° |
| 2026-05-09 02:27 | 33.70067 | -81.07224 | 35081 ft | 454 kts | 353° |
| 2026-05-09 02:27 | 33.76367 | -81.06500 | 35065 ft | 455 kts | 353° |
| 2026-05-09 02:28 | 33.82677 | -81.05758 | 35066 ft | 456 kts | 353° |
| 2026-05-09 02:28 | 33.89012 | -81.04616 | 35097 ft | 466 kts | 359° |
| 2026-05-09 02:29 | 33.95363 | -81.03077 | 35104 ft | 466 kts | 359° |
| 2026-05-09 02:29 | 34.01714 | -81.01541 | 35094 ft | 465 kts | 359° |
| 2026-05-09 02:30 | 34.08062 | -81.00008 | 35086 ft | 465 kts | 359° |
| 2026-05-09 02:30 | 34.14410 | -80.98475 | 35075 ft | 465 kts | 359° |
| 2026-05-09 02:31 | 34.20752 | -80.96932 | 35069 ft | 464 kts | 358° |
| 2026-05-09 02:31 | 34.27048 | -80.95401 | 35067 ft | 465 kts | 358° |
| 2026-05-09 02:32 | 34.33390 | -80.93861 | 35066 ft | 465 kts | 358° |
| 2026-05-09 02:32 | 34.39737 | -80.92316 | 35061 ft | 465 kts | 358° |
| 2026-05-09 02:33 | 34.46093 | -80.90767 | 35042 ft | 467 kts | 358° |
| 2026-05-09 02:33 | 34.52461 | -80.89208 | 35053 ft | 467 kts | 358° |
| 2026-05-09 02:34 | 34.58830 | -80.87641 | 35062 ft | 467 kts | 358° |
| 2026-05-09 02:34 | 34.65194 | -80.86074 | 35122 ft | 467 kts | 358° |
| 2026-05-09 02:35 | 34.71583 | -80.84519 | 35083 ft | 469 kts | 356° |
| 2026-05-09 02:35 | 34.77995 | -80.82947 | 35068 ft | 471 kts | 357° |
| 2026-05-09 02:36 | 34.84423 | -80.81352 | 35061 ft | 471 kts | 357° |
| 2026-05-09 02:36 | 34.90846 | -80.79756 | 35092 ft | 471 kts | 356° |
| 2026-05-09 02:37 | 34.97283 | -80.78160 | 35055 ft | 472 kts | 356° |
| 2026-05-09 02:37 | 35.03730 | -80.76570 | 35047 ft | 473 kts | 356° |
| 2026-05-09 02:38 | 35.10185 | -80.74974 | 35052 ft | 474 kts | 356° |
| 2026-05-09 02:38 | 35.16653 | -80.73364 | 35093 ft | 475 kts | 355° |
| 2026-05-09 02:39 | 35.23130 | -80.71748 | 35090 ft | 476 kts | 355° |
| 2026-05-09 02:39 | 35.29621 | -80.70127 | 35090 ft | 476 kts | 355° |
| 2026-05-09 02:40 | 35.36123 | -80.68508 | 35090 ft | 477 kts | 355° |
| 2026-05-09 02:40 | 35.42588 | -80.66892 | 35134 ft | 478 kts | 355° |
| 2026-05-09 02:41 | 35.49096 | -80.65257 | 35118 ft | 477 kts | 355° |
| 2026-05-09 02:41 | 35.55593 | -80.63625 | 35104 ft | 476 kts | 355° |
| 2026-05-09 02:42 | 35.62085 | -80.61994 | 35116 ft | 478 kts | 355° |
| 2026-05-09 02:42 | 35.65351 | -80.61179 | 35252 ft | 480 kts | 355° |
| 2026-05-09 02:42 | 35.68629 | -80.60358 | 35432 ft | 481 kts | 355° |
| 2026-05-09 02:42 | 35.71904 | -80.59535 | 35640 ft | 480 kts | 355° |
| 2026-05-09 02:43 | 35.75179 | -80.58707 | 35866 ft | 480 kts | 355° |
| 2026-05-09 02:43 | 35.78448 | -80.57876 | 36087 ft | 479 kts | 355° |
| 2026-05-09 02:43 | 35.81710 | -80.57046 | 36283 ft | 479 kts | 355° |
| 2026-05-09 02:43 | 35.84968 | -80.56217 | 36490 ft | 478 kts | 355° |
| 2026-05-09 02:44 | 35.88222 | -80.55391 | 36720 ft | 477 kts | 355° |
| 2026-05-09 02:44 | 35.91468 | -80.54569 | 36940 ft | 476 kts | 355° |
| 2026-05-09 02:44 | 35.94707 | -80.53747 | 37024 ft | 475 kts | 355° |
| 2026-05-09 02:45 | 36.01172 | -80.52103 | 37014 ft | 474 kts | 355° |
| 2026-05-09 02:45 | 36.07633 | -80.50457 | 37016 ft | 474 kts | 355° |
| 2026-05-09 02:46 | 36.14093 | -80.48811 | 37050 ft | 474 kts | 355° |
| 2026-05-09 02:46 | 36.20523 | -80.47166 | 37021 ft | 471 kts | 355° |
| 2026-05-09 02:47 | 36.26951 | -80.45527 | 37056 ft | 472 kts | 355° |
| 2026-05-09 02:47 | 36.33388 | -80.43873 | 37077 ft | 472 kts | 355° |
| 2026-05-09 02:48 | 36.39820 | -80.42227 | 37073 ft | 470 kts | 355° |
| 2026-05-09 02:48 | 36.46209 | -80.40719 | 37071 ft | 464 kts | 352° |
| 2026-05-09 02:49 | 36.52532 | -80.39494 | 37071 ft | 462 kts | 352° |
| 2026-05-09 02:49 | 36.58898 | -80.38290 | 37047 ft | 464 kts | 352° |
| 2026-05-09 02:50 | 36.65268 | -80.37008 | 37040 ft | 463 kts | 352° |
| 2026-05-09 02:50 | 36.71620 | -80.35695 | 37035 ft | 463 kts | 352° |
| 2026-05-09 02:51 | 36.77963 | -80.34491 | 37032 ft | 458 kts | 350° |
| 2026-05-09 02:51 | 36.84268 | -80.33627 | 37079 ft | 454 kts | 348° |
| 2026-05-09 02:52 | 36.90560 | -80.32841 | 37045 ft | 455 kts | 349° |
| 2026-05-09 02:52 | 36.96860 | -80.31994 | 37056 ft | 456 kts | 349° |
| 2026-05-09 02:53 | 37.03174 | -80.31089 | 37065 ft | 457 kts | 349° |
| 2026-05-09 02:53 | 37.09497 | -80.30165 | 37100 ft | 457 kts | 350° |
| 2026-05-09 02:54 | 37.15810 | -80.29250 | 37087 ft | 457 kts | 349° |
| 2026-05-09 02:54 | 37.22125 | -80.28349 | 37084 ft | 457 kts | 349° |
| 2026-05-09 02:55 | 37.28448 | -80.27450 | 37027 ft | 457 kts | 350° |
| 2026-05-09 02:55 | 37.34778 | -80.26547 | 37066 ft | 458 kts | 350° |
| 2026-05-09 02:56 | 37.41076 | -80.25637 | 37052 ft | 459 kts | 350° |
| 2026-05-09 02:56 | 37.47423 | -80.24722 | 37043 ft | 459 kts | 350° |
| 2026-05-09 02:57 | 37.53771 | -80.23797 | 37035 ft | 459 kts | 350° |
| 2026-05-09 02:57 | 37.60121 | -80.22876 | 37011 ft | 459 kts | 350° |
| 2026-05-09 02:58 | 37.66464 | -80.21962 | 37010 ft | 459 kts | 350° |
| 2026-05-09 02:58 | 37.72818 | -80.21018 | 37016 ft | 460 kts | 351° |
| 2026-05-09 02:59 | 37.79170 | -80.20061 | 37051 ft | 460 kts | 351° |
| 2026-05-09 02:59 | 37.85533 | -80.19112 | 37037 ft | 461 kts | 351° |
| 2026-05-09 03:00 | 37.91904 | -80.18157 | 37028 ft | 461 kts | 351° |
| 2026-05-09 03:00 | 37.98286 | -80.17188 | 37013 ft | 462 kts | 351° |
| 2026-05-09 03:01 | 38.04669 | -80.16224 | 37020 ft | 462 kts | 351° |
| 2026-05-09 03:01 | 38.11043 | -80.15261 | 37025 ft | 461 kts | 350° |
| 2026-05-09 03:02 | 38.17406 | -80.14316 | 37022 ft | 460 kts | 350° |
| 2026-05-09 03:02 | 38.22683 | -80.13522 | 37019 ft | 460 kts | 351° |
| 2026-05-09 03:03 | 38.29031 | -80.12560 | 37025 ft | 459 kts | 350° |
| 2026-05-09 03:03 | 38.35376 | -80.11607 | 37015 ft | 459 kts | 350° |
| 2026-05-09 03:04 | 38.41682 | -80.10945 | 37010 ft | 450 kts | 346° |
| 2026-05-09 03:04 | 38.47916 | -80.10698 | 37076 ft | 447 kts | 345° |
| 2026-05-09 03:05 | 38.54115 | -80.10488 | 36987 ft | 445 kts | 346° |
| 2026-05-09 03:05 | 38.60320 | -80.10175 | 36981 ft | 447 kts | 346° |
| 2026-05-09 03:06 | 38.66550 | -80.09812 | 36984 ft | 449 kts | 346° |
| 2026-05-09 03:06 | 38.72793 | -80.09451 | 37010 ft | 449 kts | 347° |
| 2026-05-09 03:07 | 38.79017 | -80.09103 | 37004 ft | 447 kts | 347° |
| 2026-05-09 03:07 | 38.85229 | -80.08769 | 37004 ft | 447 kts | 347° |
| 2026-05-09 03:08 | 38.91440 | -80.08422 | 36998 ft | 450 kts | 349° |
| 2026-05-09 03:08 | 38.94559 | -80.07878 | 37037 ft | 462 kts | 355° |
| 2026-05-09 03:08 | 38.97708 | -80.07192 | 36964 ft | 457 kts | 355° |
| 2026-05-09 03:09 | 39.03957 | -80.05830 | 36958 ft | 455 kts | 354° |
| 2026-05-09 03:09 | 39.10206 | -80.04488 | 36939 ft | 456 kts | 354° |
| 2026-05-09 03:10 | 39.16469 | -80.03150 | 36987 ft | 457 kts | 354° |
| 2026-05-09 03:10 | 39.22739 | -80.01800 | 36985 ft | 457 kts | 355° |
| 2026-05-09 03:11 | 39.29008 | -80.00435 | 36977 ft | 457 kts | 355° |
| 2026-05-09 03:11 | 39.35280 | -79.99065 | 36971 ft | 457 kts | 355° |
| 2026-05-09 03:12 | 39.41545 | -79.97699 | 36947 ft | 455 kts | 355° |
| 2026-05-09 03:12 | 39.47774 | -79.96341 | 36948 ft | 454 kts | 355° |
| 2026-05-09 03:13 | 39.57134 | -79.94300 | 36961 ft | 455 kts | 355° |
| 2026-05-09 03:13 | 39.63389 | -79.92941 | 36998 ft | 456 kts | 355° |
| 2026-05-09 03:14 | 39.69653 | -79.91578 | 36992 ft | 457 kts | 355° |
| 2026-05-09 03:14 | 39.75922 | -79.90197 | 36984 ft | 457 kts | 355° |
| 2026-05-09 03:15 | 39.82193 | -79.88812 | 37026 ft | 457 kts | 355° |
| 2026-05-09 03:15 | 39.88429 | -79.87422 | 36952 ft | 453 kts | 355° |
| 2026-05-09 03:16 | 39.94643 | -79.86049 | 36948 ft | 453 kts | 355° |
| 2026-05-09 03:16 | 40.00866 | -79.84687 | 36949 ft | 454 kts | 355° |
| 2026-05-09 03:17 | 40.07054 | -79.83315 | 36978 ft | 454 kts | 356° |
| 2026-05-09 03:17 | 40.13284 | -79.81926 | 36987 ft | 454 kts | 356° |
| 2026-05-09 03:18 | 40.19511 | -79.80542 | 36985 ft | 453 kts | 356° |
| 2026-05-09 03:18 | 40.25732 | -79.79158 | 36989 ft | 453 kts | 356° |
| 2026-05-09 03:19 | 40.31950 | -79.77775 | 36993 ft | 453 kts | 356° |
| 2026-05-09 03:19 | 40.38161 | -79.76388 | 36991 ft | 452 kts | 356° |
| 2026-05-09 03:20 | 40.44368 | -79.74993 | 36988 ft | 452 kts | 356° |
| 2026-05-09 03:20 | 40.50560 | -79.73589 | 36972 ft | 450 kts | 356° |
| 2026-05-09 03:21 | 40.56732 | -79.72206 | 36974 ft | 450 kts | 356° |
| 2026-05-09 03:21 | 40.62914 | -79.70821 | 36990 ft | 451 kts | 356° |
| 2026-05-09 03:22 | 40.69095 | -79.69425 | 37028 ft | 451 kts | 356° |
| 2026-05-09 03:22 | 40.75282 | -79.68025 | 37003 ft | 451 kts | 356° |
| 2026-05-09 03:23 | 40.81430 | -79.66631 | 36997 ft | 451 kts | 356° |
| 2026-05-09 03:23 | 40.87620 | -79.65231 | 36994 ft | 452 kts | 356° |
| 2026-05-09 03:24 | 40.93802 | -79.63819 | 36978 ft | 450 kts | 357° |
| 2026-05-09 03:24 | 40.99969 | -79.62412 | 36976 ft | 450 kts | 357° |
| 2026-05-09 03:25 | 41.06143 | -79.61003 | 36978 ft | 450 kts | 357° |
| 2026-05-09 03:25 | 41.12320 | -79.59589 | 36980 ft | 449 kts | 358° |
| 2026-05-09 03:26 | 41.18471 | -79.58180 | 36969 ft | 448 kts | 358° |
| 2026-05-09 03:26 | 41.24625 | -79.56768 | 36969 ft | 449 kts | 358° |
| 2026-05-09 03:27 | 41.30786 | -79.55345 | 37009 ft | 450 kts | 358° |
| 2026-05-09 03:27 | 41.36952 | -79.53927 | 36996 ft | 450 kts | 358° |
| 2026-05-09 03:28 | 41.43121 | -79.52493 | 36984 ft | 450 kts | 358° |
| 2026-05-09 03:28 | 41.49285 | -79.51059 | 36980 ft | 450 kts | 358° |
| 2026-05-09 03:29 | 41.55441 | -79.49630 | 36964 ft | 448 kts | 358° |
| 2026-05-09 03:29 | 41.61573 | -79.48210 | 36960 ft | 447 kts | 358° |
| 2026-05-09 03:30 | 41.67711 | -79.46778 | 36961 ft | 448 kts | 358° |
| 2026-05-09 03:30 | 41.73856 | -79.45348 | 36989 ft | 448 kts | 358° |
| 2026-05-09 03:31 | 41.80012 | -79.43916 | 36981 ft | 449 kts | 358° |
| 2026-05-09 03:31 | 41.86168 | -79.42474 | 36978 ft | 449 kts | 358° |
| 2026-05-09 03:32 | 41.92325 | -79.41019 | 37015 ft | 449 kts | 358° |
| 2026-05-09 03:32 | 41.98483 | -79.39569 | 36341 ft | 452 kts | 358° |
| 2026-05-09 03:33 | 42.01541 | -79.38850 | 35639 ft | 452 kts | 358° |
| 2026-05-09 03:33 | 42.04647 | -79.38119 | 34828 ft | 454 kts | 357° |
| 2026-05-09 03:33 | 42.07765 | -79.37388 | 34004 ft | 456 kts | 357° |
| 2026-05-09 03:33 | 42.10873 | -79.36686 | 33394 ft | 445 kts | 354° |
| 2026-05-09 03:34 | 42.13899 | -79.36357 | 32858 ft | 432 kts | 350° |
| 2026-05-09 03:34 | 42.16879 | -79.36107 | 32312 ft | 426 kts | 349° |
| 2026-05-09 03:34 | 42.19820 | -79.35864 | 31786 ft | 421 kts | 349° |
| 2026-05-09 03:34 | 42.22729 | -79.35633 | 31262 ft | 416 kts | 349° |
| 2026-05-09 03:35 | 42.25602 | -79.35410 | 30745 ft | 411 kts | 349° |
| 2026-05-09 03:35 | 42.28436 | -79.35188 | 30236 ft | 406 kts | 349° |
| 2026-05-09 03:35 | 42.31239 | -79.34962 | 29699 ft | 401 kts | 349° |
| 2026-05-09 03:35 | 42.34001 | -79.34741 | 29200 ft | 395 kts | 349° |
| 2026-05-09 03:36 | 42.36719 | -79.34518 | 28725 ft | 388 kts | 350° |
| 2026-05-09 03:36 | 42.39388 | -79.34297 | 28250 ft | 381 kts | 350° |
| 2026-05-09 03:36 | 42.42012 | -79.34089 | 27791 ft | 374 kts | 350° |
| 2026-05-09 03:36 | 42.44585 | -79.33885 | 27345 ft | 367 kts | 350° |
| 2026-05-09 03:37 | 42.47114 | -79.33678 | 26910 ft | 361 kts | 350° |
| 2026-05-09 03:37 | 42.49609 | -79.33476 | 26495 ft | 358 kts | 351° |
| 2026-05-09 03:37 | 42.52094 | -79.33279 | 26084 ft | 357 kts | 351° |
| 2026-05-09 03:37 | 42.54568 | -79.33085 | 25677 ft | 356 kts | 351° |
| 2026-05-09 03:38 | 42.57038 | -79.32892 | 25269 ft | 355 kts | 352° |
| 2026-05-09 03:38 | 42.59502 | -79.32696 | 24865 ft | 354 kts | 352° |
| 2026-05-09 03:38 | 42.61959 | -79.32500 | 24462 ft | 353 kts | 353° |
| 2026-05-09 03:38 | 42.64404 | -79.32301 | 24063 ft | 352 kts | 353° |
| 2026-05-09 03:39 | 42.66809 | -79.32105 | 23658 ft | 350 kts | 353° |
| 2026-05-09 03:39 | 42.69237 | -79.31910 | 23201 ft | 349 kts | 354° |
| 2026-05-09 03:39 | 42.71657 | -79.31719 | 22772 ft | 348 kts | 354° |
| 2026-05-09 03:39 | 42.74066 | -79.31526 | 22374 ft | 346 kts | 354° |
| 2026-05-09 03:40 | 42.76463 | -79.31335 | 21957 ft | 344 kts | 354° |
| 2026-05-09 03:40 | 42.78846 | -79.31146 | 21532 ft | 342 kts | 354° |
| 2026-05-09 03:40 | 42.81216 | -79.30954 | 21119 ft | 341 kts | 354° |
| 2026-05-09 03:40 | 42.83569 | -79.30829 | 20701 ft | 334 kts | 349° |
| 2026-05-09 03:41 | 42.85867 | -79.31037 | 20288 ft | 330 kts | 347° |
| 2026-05-09 03:41 | 42.88154 | -79.31261 | 19880 ft | 329 kts | 347° |
| 2026-05-09 03:41 | 42.90430 | -79.31483 | 19472 ft | 327 kts | 347° |
| 2026-05-09 03:41 | 42.92696 | -79.31711 | 19066 ft | 326 kts | 347° |
| 2026-05-09 03:42 | 42.94951 | -79.31938 | 18665 ft | 324 kts | 347° |
| 2026-05-09 03:42 | 42.97197 | -79.32160 | 18264 ft | 322 kts | 347° |
| 2026-05-09 03:42 | 42.99429 | -79.32382 | 17933 ft | 322 kts | 347° |
| 2026-05-09 03:42 | 43.01657 | -79.32608 | 17540 ft | 320 kts | 347° |
| 2026-05-09 03:43 | 43.03873 | -79.32832 | 17145 ft | 318 kts | 347° |
| 2026-05-09 03:43 | 43.06076 | -79.33054 | 16756 ft | 317 kts | 348° |
| 2026-05-09 03:43 | 43.08268 | -79.33273 | 16369 ft | 315 kts | 348° |
| 2026-05-09 03:43 | 43.10445 | -79.33493 | 15984 ft | 313 kts | 348° |
| 2026-05-09 03:44 | 43.12610 | -79.33712 | 15603 ft | 311 kts | 348° |
| 2026-05-09 03:44 | 43.14766 | -79.33928 | 15224 ft | 310 kts | 348° |
| 2026-05-09 03:44 | 43.16907 | -79.34142 | 14842 ft | 308 kts | 348° |
| 2026-05-09 03:44 | 43.19039 | -79.34355 | 14465 ft | 306 kts | 348° |
| 2026-05-09 03:45 | 43.21158 | -79.34566 | 14083 ft | 305 kts | 348° |
| 2026-05-09 03:45 | 43.23268 | -79.34778 | 13703 ft | 303 kts | 349° |
| 2026-05-09 03:45 | 43.25362 | -79.34991 | 13288 ft | 301 kts | 349° |
| 2026-05-09 03:45 | 43.27443 | -79.35204 | 12901 ft | 299 kts | 349° |
| 2026-05-09 03:46 | 43.29498 | -79.35488 | 12514 ft | 293 kts | 342° |
| 2026-05-09 03:46 | 43.31426 | -79.36244 | 12137 ft | 284 kts | 331° |
| 2026-05-09 03:46 | 43.33202 | -79.37367 | 12001 ft | 281 kts | 328° |
| 2026-05-09 03:46 | 43.34975 | -79.38507 | 11906 ft | 282 kts | 329° |
| 2026-05-09 03:47 | 43.36757 | -79.39647 | 11771 ft | 283 kts | 329° |
| 2026-05-09 03:47 | 43.38554 | -79.40799 | 11224 ft | 286 kts | 329° |
| 2026-05-09 03:47 | 43.40339 | -79.41940 | 10837 ft | 281 kts | 329° |
| 2026-05-09 03:47 | 43.42110 | -79.43073 | 10389 ft | 280 kts | 330° |
| 2026-05-09 03:48 | 43.43872 | -79.44202 | 9967 ft | 278 kts | 330° |
| 2026-05-09 03:48 | 43.45618 | -79.45325 | 9488 ft | 275 kts | 330° |
| 2026-05-09 03:48 | 43.47341 | -79.46434 | 8799 ft | 273 kts | 330° |
| 2026-05-09 03:48 | 43.49031 | -79.47526 | 8424 ft | 261 kts | 330° |
| 2026-05-09 03:49 | 43.50613 | -79.48542 | 8278 ft | 241 kts | 330° |
| 2026-05-09 03:49 | 43.52085 | -79.49486 | 8172 ft | 230 kts | 330° |
| 2026-05-09 03:49 | 43.53527 | -79.50419 | 8067 ft | 228 kts | 330° |
| 2026-05-09 03:49 | 43.54940 | -79.51335 | 8024 ft | 227 kts | 330° |
| 2026-05-09 03:50 | 43.56372 | -79.52259 | 8022 ft | 227 kts | 330° |
| 2026-05-09 03:50 | 43.57819 | -79.53148 | 8019 ft | 229 kts | 338° |
| 2026-05-09 03:50 | 43.59415 | -79.53352 | 7753 ft | 236 kts | 5° |
| 2026-05-09 03:50 | 43.60942 | -79.52467 | 7400 ft | 244 kts | 35° |
| 2026-05-09 03:51 | 43.62159 | -79.50808 | 7038 ft | 247 kts | 44° |
| 2026-05-09 03:51 | 43.63327 | -79.49089 | 6831 ft | 246 kts | 44° |
| 2026-05-09 03:51 | 43.64504 | -79.47361 | 6636 ft | 247 kts | 44° |
| 2026-05-09 03:51 | 43.65683 | -79.45635 | 6480 ft | 247 kts | 44° |
| 2026-05-09 03:52 | 43.66859 | -79.43912 | 6306 ft | 246 kts | 44° |
| 2026-05-09 03:52 | 43.68031 | -79.42192 | 6108 ft | 246 kts | 44° |
| 2026-05-09 03:52 | 43.69199 | -79.40476 | 5933 ft | 245 kts | 44° |
| 2026-05-09 03:52 | 43.69987 | -79.39322 | 5807 ft | 244 kts | 44° |
| 2026-05-09 03:53 | 43.71133 | -79.37644 | 5629 ft | 243 kts | 44° |
| 2026-05-09 03:53 | 43.72293 | -79.35952 | 5441 ft | 242 kts | 44° |
| 2026-05-09 03:53 | 43.73450 | -79.34264 | 5274 ft | 242 kts | 44° |
| 2026-05-09 03:53 | 43.74606 | -79.32577 | 5116 ft | 242 kts | 44° |
| 2026-05-09 03:54 | 43.75763 | -79.30890 | 5009 ft | 241 kts | 44° |
| 2026-05-09 03:54 | 43.76914 | -79.29205 | 5018 ft | 241 kts | 44° |
| 2026-05-09 03:54 | 43.78066 | -79.27514 | 5018 ft | 242 kts | 44° |
| 2026-05-09 03:54 | 43.79219 | -79.25821 | 5023 ft | 242 kts | 44° |
| 2026-05-09 03:55 | 43.80371 | -79.24129 | 5020 ft | 241 kts | 43° |
| 2026-05-09 03:55 | 43.81730 | -79.22859 | 5024 ft | 234 kts | 12° |
| 2026-05-09 03:55 | 43.83295 | -79.22773 | 5022 ft | 223 kts | 339° |
| 2026-05-09 03:55 | 43.84654 | -79.23722 | 5019 ft | 219 kts | 322° |
| 2026-05-09 03:56 | 43.85900 | -79.24929 | 5026 ft | 218 kts | 320° |
| 2026-05-09 03:56 | 43.87127 | -79.26168 | 5022 ft | 218 kts | 320° |
| 2026-05-09 03:56 | 43.88346 | -79.27426 | 5020 ft | 218 kts | 315° |
| 2026-05-09 03:56 | 43.89235 | -79.29062 | 5018 ft | 212 kts | 294° |
| 2026-05-09 03:57 | 43.89702 | -79.30983 | 5018 ft | 210 kts | 276° |
| 2026-05-09 03:57 | 43.89638 | -79.32990 | 5016 ft | 210 kts | 255° |
| 2026-05-09 03:57 | 43.89030 | -79.34820 | 5016 ft | 212 kts | 235° |
| 2026-05-09 03:57 | 43.88032 | -79.36332 | 5020 ft | 213 kts | 229° |
| 2026-05-09 03:58 | 43.87007 | -79.37819 | 5021 ft | 213 kts | 229° |
| 2026-05-09 03:58 | 43.85981 | -79.39313 | 4923 ft | 215 kts | 229° |
| 2026-05-09 03:58 | 43.84974 | -79.40785 | 4654 ft | 207 kts | 229° |
| 2026-05-09 03:58 | 43.84002 | -79.42207 | 4413 ft | 199 kts | 229° |
| 2026-05-09 03:59 | 43.83065 | -79.43577 | 4193 ft | 193 kts | 227° |
| 2026-05-09 03:59 | 43.82154 | -79.44913 | 3978 ft | 190 kts | 227° |
| 2026-05-09 03:59 | 43.81249 | -79.46241 | 3768 ft | 189 kts | 227° |
| 2026-05-09 03:59 | 43.80351 | -79.47557 | 3565 ft | 184 kts | 226° |
| 2026-05-09 04:00 | 43.79495 | -79.48811 | 3365 ft | 174 kts | 226° |
| 2026-05-09 04:00 | 43.78683 | -79.49996 | 3173 ft | 165 kts | 225° |
| 2026-05-09 04:00 | 43.77910 | -79.51124 | 2988 ft | 158 kts | 225° |
| 2026-05-09 04:00 | 43.77185 | -79.52183 | 2832 ft | 148 kts | 225° |
| 2026-05-09 04:01 | 43.76491 | -79.53195 | 2666 ft | 143 kts | 224° |
| 2026-05-09 04:01 | 43.75817 | -79.54181 | 2468 ft | 137 kts | 224° |
| 2026-05-09 04:01 | 43.75168 | -79.55126 | 2268 ft | 134 kts | 224° |
| 2026-05-09 04:01 | 43.74527 | -79.56055 | 2083 ft | 133 kts | 224° |
| 2026-05-09 04:02 | 43.73889 | -79.56981 | 1898 ft | 133 kts | 224° |
| 2026-05-09 04:02 | 43.73255 | -79.57901 | 1729 ft | 132 kts | 224° |
| 2026-05-09 04:02 | 43.72623 | -79.58814 | 1545 ft | 131 kts | 224° |
| 2026-05-09 04:02 | 43.71988 | -79.59719 | 1367 ft | 132 kts | 223° |
| 2026-05-09 04:03 | 43.71349 | -79.60646 | 1176 ft | 135 kts | 225° |
| 2026-05-09 04:03 | 43.70709 | -79.61599 | 1001 ft | 136 kts | 225° |
| 2026-05-09 04:03 | 43.70065 | -79.62560 | 824 ft | 137 kts | 225° |
| 2026-05-09 04:03 | 43.69418 | -79.63502 | 625 ft | 137 kts | 224° |
| 2026-05-09 04:04 | 43.68787 | -79.64411 | 570 ft | 110 kts | 226° |
| 2026-05-09 04:04 | 43.68440 | -79.64919 | 575 ft | 24 kts | 226° |
| 2026-05-09 04:04 | 43.68356 | -79.65023 | 565 ft | 14 kts | 214° |
| 2026-05-09 04:04 | 43.68270 | -79.65070 | 565 ft | 13 kts | 196° |
| 2026-05-09 04:05 | 43.68185 | -79.65104 | 566 ft | 12 kts | 196° |
| 2026-05-09 04:05 | 43.68109 | -79.65078 | 571 ft | 11 kts | 133° |
| 2026-05-09 04:05 | 43.68112 | -79.64993 | 571 ft | 9 kts | 55° |
| 2026-05-09 04:05 | 43.68149 | -79.64937 | 572 ft | 7 kts | 46° |
| 2026-05-09 04:06 | 43.68198 | -79.64867 | 570 ft | 13 kts | 46° |
| 2026-05-09 04:06 | 43.68265 | -79.64770 | 574 ft | 13 kts | 47° |
| 2026-05-09 04:06 | 43.68331 | -79.64673 | 571 ft | 15 kts | 46° |
| 2026-05-09 04:06 | 43.68415 | -79.64550 | 571 ft | 18 kts | 46° |
| 2026-05-09 04:07 | 43.68502 | -79.64424 | 571 ft | 19 kts | 46° |
| 2026-05-09 04:07 | 43.68592 | -79.64294 | 571 ft | 18 kts | 46° |
| 2026-05-09 04:07 | 43.68675 | -79.64174 | 568 ft | 17 kts | 46° |
| 2026-05-09 04:07 | 43.68754 | -79.64059 | 573 ft | 16 kts | 46° |
| 2026-05-09 04:08 | 43.68823 | -79.63959 | 571 ft | 13 kts | 46° |
| 2026-05-09 04:08 | 43.68893 | -79.63859 | 572 ft | 15 kts | 46° |
| 2026-05-09 04:08 | 43.68965 | -79.63754 | 572 ft | 15 kts | 46° |
| 2026-05-09 04:08 | 43.69042 | -79.63642 | 570 ft | 18 kts | 46° |
| 2026-05-09 04:09 | 43.69073 | -79.63529 | 569 ft | 12 kts | 116° |
| 2026-05-09 04:09 | 43.69012 | -79.63443 | 570 ft | 13 kts | 136° |
| 2026-05-09 04:09 | 43.68949 | -79.63361 | 571 ft | 13 kts | 137° |
| 2026-05-09 04:09 | 43.68873 | -79.63262 | 570 ft | 17 kts | 136° |
| 2026-05-09 04:10 | 43.68784 | -79.63145 | 564 ft | 18 kts | 136° |
| 2026-05-09 04:10 | 43.68689 | -79.63023 | 565 ft | 19 kts | 136° |
| 2026-05-09 04:10 | 43.68599 | -79.62904 | 562 ft | 17 kts | 137° |
| 2026-05-09 04:10 | 43.68522 | -79.62804 | 562 ft | 14 kts | 137° |
| 2026-05-09 04:11 | 43.68454 | -79.62717 | 562 ft | 14 kts | 136° |
| 2026-05-09 04:11 | 43.68376 | -79.62613 | 565 ft | 17 kts | 137° |
| 2026-05-09 04:11 | 43.68301 | -79.62518 | 565 ft | 13 kts | 137° |
| 2026-05-09 04:11 | 43.68263 | -79.62435 | 563 ft | 9 kts | 82° |
| 2026-05-09 04:12 | 43.68286 | -79.62365 | 562 ft | 8 kts | 80° |
| 2026-05-09 04:12 | 43.68300 | -79.62302 | 562 ft | 7 kts | 59° |
| 2026-05-09 04:12 | 43.68339 | -79.62243 | 567 ft | 8 kts | 45° |
| 2026-05-09 04:12 | 43.68369 | -79.62201 | 566 ft | 4 kts | 45° |
| 2026-05-09 04:13 | 43.68385 | -79.62182 | 571 ft | 3 kts | 34° |
| 2026-05-09 04:13 | 43.68409 | -79.62158 | 568 ft | 5 kts | 54° |
| 2026-05-09 04:13 | 43.68407 | -79.62103 | 562 ft | 7 kts | 104° |
| 2026-05-09 04:13 | 43.68402 | -79.62078 | 569 ft | 0 kts | 106° |